Time,TemperatureF,DewpointF,PressureIn,WindDirection,WindDirectionDegrees,WindSpeedMPH,WindSpeedGustMPH,Humidity,HourlyPrecipIn,Conditions,Clouds,dailyrainin,SoftwareType,DateUTC
2013-06-08 00:02:00,56.0,45.0,-100.00,North,0,9.0,11.0,66,-99.99,,,-99.99,,2013-06-08 05:02:00,
2013-06-08 00:12:00,56.0,44.0,-100.00,North,0,6.0,9.0,65,-99.99,,,-99.99,,2013-06-08 05:12:00,
2013-06-08 00:22:00,56.0,44.0,-100.00,North,0,6.0,9.0,65,-99.99,,,-99.99,,2013-06-08 05:22:00,
2013-06-08 00:32:00,54.0,44.0,-100.00,North,0,7.0,8.0,70,-99.99,,,-99.99,,2013-06-08 05:32:00,
2013-06-08 00:42:00,53.0,44.0,-100.00,North,0,6.0,7.0,73,-99.99,,,-99.99,,2013-06-08 05:42:00,
2013-06-08 00:53:00,53.0,44.0,-100.00,North,0,6.0,7.0,73,-99.99,,,-99.99,,2013-06-08 05:53:00,
2013-06-08 01:02:00,52.0,45.0,-100.00,North,0,5.0,6.0,77,-99.99,,,-99.99,,2013-06-08 06:02:00,
2013-06-08 01:12:00,51.0,45.0,-100.00,North,0,6.0,7.0,80,-99.99,,,-99.99,,2013-06-08 06:12:00,
2013-06-08 01:22:00,51.0,45.0,-100.00,North,0,6.0,7.0,80,-99.99,,,-99.99,,2013-06-08 06:22:00,
2013-06-08 01:32:00,50.0,45.0,-100.00,North,0,6.0,6.0,85,-99.99,,,-99.99,,2013-06-08 06:32:00,
2013-06-08 01:42:00,50.0,46.0,-100.00,North,0,6.0,6.0,85,-99.99,,,-99.99,,2013-06-08 06:42:00,
2013-06-08 01:53:00,50.0,46.0,-100.00,North,0,6.0,6.0,85,-99.99,,,-99.99,,2013-06-08 06:53:00,
2013-06-08 02:02:00,50.0,46.0,-100.00,North,0,5.0,6.0,86,-99.99,,,-99.99,,2013-06-08 07:02:00,
2013-06-08 02:12:00,50.0,46.0,-100.00,North,5,2.0,4.0,85,-99.99,,,-99.99,,2013-06-08 07:12:00,
2013-06-08 02:22:00,50.0,46.0,-100.00,North,5,2.0,4.0,85,-99.99,,,-99.99,,2013-06-08 07:22:00,
2013-06-08 02:32:00,51.0,46.0,-100.00,North,0,4.0,6.0,81,-99.99,,,-99.99,,2013-06-08 07:32:00,
2013-06-08 02:42:00,51.0,45.0,-100.00,North,0,1.0,3.0,80,-99.99,,,-99.99,,2013-06-08 07:42:00,
2013-06-08 02:52:00,51.0,45.0,-100.00,North,0,1.0,3.0,80,-99.99,,,-99.99,,2013-06-08 07:52:00,
2013-06-08 03:02:00,50.0,45.0,-100.00,North,0,3.0,4.0,83,-99.99,,,-99.99,,2013-06-08 08:02:00,
2013-06-08 03:12:00,51.0,45.0,-100.00,North,0,2.0,4.0,81,-99.99,,,-99.99,,2013-06-08 08:12:00,
2013-06-08 03:22:00,51.0,45.0,-100.00,North,0,2.0,4.0,81,-99.99,,,-99.99,,2013-06-08 08:22:00,
2013-06-08 03:32:00,50.0,45.0,-100.00,North,0,1.0,4.0,83,-99.99,,,-99.99,,2013-06-08 08:32:00,
2013-06-08 03:42:00,49.0,45.0,-100.00,North,0,0.0,0.0,85,-99.99,,,-99.99,,2013-06-08 08:42:00,
2013-06-08 03:53:00,49.0,45.0,-100.00,North,0,0.0,0.0,85,-99.99,,,-99.99,,2013-06-08 08:53:00,
2013-06-08 04:02:00,49.0,45.0,-100.00,North,0,0.0,0.0,88,-99.99,,,-99.99,,2013-06-08 09:02:00,
2013-06-08 04:12:00,48.0,45.0,-100.00,North,0,1.0,3.0,89,-99.99,,,-99.99,,2013-06-08 09:12:00,
2013-06-08 04:22:00,48.0,45.0,-100.00,North,0,1.0,3.0,89,-99.99,,,-99.99,,2013-06-08 09:22:00,
2013-06-08 04:33:00,48.0,45.0,-100.00,North,0,0.0,1.0,89,-99.99,,,-99.99,,2013-06-08 09:33:00,
2013-06-08 04:43:00,48.0,45.0,-100.00,North,0,0.0,1.0,90,-99.99,,,-99.99,,2013-06-08 09:43:00,
2013-06-08 04:53:00,48.0,45.0,-100.00,North,0,0.0,1.0,90,-99.99,,,-99.99,,2013-06-08 09:53:00,
2013-06-08 05:03:00,48.0,45.0,-100.00,North,0,0.0,1.0,90,-99.99,,,-99.99,,2013-06-08 10:03:00,
2013-06-08 05:12:00,47.0,44.0,-100.00,North,0,2.0,4.0,91,-99.99,,,-99.99,,2013-06-08 10:12:00,
2013-06-08 05:22:00,47.0,44.0,-100.00,North,0,2.0,4.0,91,-99.99,,,-99.99,,2013-06-08 10:22:00,
2013-06-08 05:33:00,47.0,44.0,-100.00,North,0,1.0,2.0,92,-99.99,,,-99.99,,2013-06-08 10:33:00,
2013-06-08 05:43:00,46.0,44.0,-100.00,North,0,0.0,1.0,93,-99.99,,,-99.99,,2013-06-08 10:43:00,
2013-06-08 05:53:00,46.0,44.0,-100.00,North,0,0.0,1.0,93,-99.99,,,-99.99,,2013-06-08 10:53:00,
2013-06-08 06:02:00,47.0,45.0,-100.00,North,10,0.0,0.0,94,-99.99,,,-99.99,,2013-06-08 11:02:00,
2013-06-08 06:12:00,47.0,45.0,-100.00,North,0,0.0,0.0,94,-99.99,,,-99.99,,2013-06-08 11:12:00,
2013-06-08 06:22:00,47.0,45.0,-100.00,North,0,0.0,0.0,94,-99.99,,,-99.99,,2013-06-08 11:22:00,
2013-06-08 06:32:00,49.0,47.0,-100.00,North,0,0.0,0.0,93,-99.99,,,-99.99,,2013-06-08 11:32:00,
2013-06-08 06:42:00,51.0,47.0,-100.00,North,5,0.0,1.0,84,-99.99,,,-99.99,,2013-06-08 11:42:00,
2013-06-08 06:52:00,51.0,47.0,-100.00,North,5,0.0,1.0,84,-99.99,,,-99.99,,2013-06-08 11:52:00,
2013-06-08 07:02:00,55.0,47.0,-100.00,North,5,1.0,1.0,74,-99.99,,,-99.99,,2013-06-08 12:02:00,
2013-06-08 07:12:00,58.0,46.0,-100.00,North,0,0.0,1.0,66,-99.99,,,-99.99,,2013-06-08 12:12:00,
2013-06-08 07:22:00,58.0,46.0,-100.00,North,0,0.0,1.0,66,-99.99,,,-99.99,,2013-06-08 12:22:00,
2013-06-08 07:32:00,60.0,46.0,-100.00,North,0,1.0,1.0,59,-99.99,,,-99.99,,2013-06-08 12:32:00,
2013-06-08 07:42:00,62.0,43.0,-100.00,North,0,0.0,1.0,49,-99.99,,,-99.99,,2013-06-08 12:42:00,
2013-06-08 07:52:00,62.0,43.0,-100.00,North,0,0.0,1.0,49,-99.99,,,-99.99,,2013-06-08 12:52:00,
2013-06-08 08:02:00,63.0,42.0,-100.00,North,0,4.0,6.0,45,-99.99,,,-99.99,,2013-06-08 13:02:00,
2013-06-08 08:12:00,64.0,42.0,-100.00,North,0,5.0,6.0,44,-99.99,,,-99.99,,2013-06-08 13:12:00,
2013-06-08 08:22:00,64.0,42.0,-100.00,North,0,5.0,6.0,44,-99.99,,,-99.99,,2013-06-08 13:22:00,
2013-06-08 08:32:00,65.0,41.0,-100.00,North,0,6.0,8.0,42,-99.99,,,-99.99,,2013-06-08 13:32:00,
2013-06-08 08:42:00,65.0,41.0,-100.00,North,0,4.0,7.0,41,-99.99,,,-99.99,,2013-06-08 13:42:00,
2013-06-08 08:52:00,65.0,41.0,-100.00,North,0,4.0,7.0,41,-99.99,,,-99.99,,2013-06-08 13:52:00,
2013-06-08 09:02:00,67.0,41.0,-100.00,North,0,5.0,8.0,38,-99.99,,,-99.99,,2013-06-08 14:02:00,
2013-06-08 09:12:00,68.0,40.0,-100.00,North,0,6.0,9.0,36,-99.99,,,-99.99,,2013-06-08 14:12:00,
2013-06-08 09:22:00,68.0,40.0,-100.00,North,0,6.0,9.0,36,-99.99,,,-99.99,,2013-06-08 14:22:00,
2013-06-08 09:32:00,69.0,40.0,-100.00,North,0,9.0,11.0,35,-99.99,,,-99.99,,2013-06-08 14:32:00,
2013-06-08 09:42:00,69.0,40.0,-100.00,North,0,5.0,10.0,34,-99.99,,,-99.99,,2013-06-08 14:42:00,
2013-06-08 09:52:00,69.0,40.0,-100.00,North,0,5.0,10.0,34,-99.99,,,-99.99,,2013-06-08 14:52:00,
2013-06-08 10:02:00,70.0,41.0,-100.00,North,0,9.0,11.0,34,-99.99,,,-99.99,,2013-06-08 15:02:00,
2013-06-08 10:12:00,70.0,40.0,-100.00,North,0,6.0,14.0,33,-99.99,,,-99.99,,2013-06-08 15:12:00,
2013-06-08 10:22:00,70.0,40.0,-100.00,North,0,6.0,14.0,33,-99.99,,,-99.99,,2013-06-08 15:22:00,
2013-06-08 10:32:00,71.0,40.0,-100.00,North,0,6.0,12.0,33,-99.99,,,-99.99,,2013-06-08 15:32:00,
2013-06-08 10:42:00,71.0,40.0,-100.00,North,5,6.0,8.0,32,-99.99,,,-99.99,,2013-06-08 15:42:00,
2013-06-08 10:53:00,71.0,40.0,-100.00,North,5,6.0,8.0,32,-99.99,,,-99.99,,2013-06-08 15:53:00,
2013-06-08 11:03:00,71.0,40.0,-100.00,North,0,6.0,9.0,32,-99.99,,,-99.99,,2013-06-08 16:03:00,
2013-06-08 11:12:00,71.0,41.0,-100.00,North,0,3.0,8.0,34,-99.99,,,-99.99,,2013-06-08 16:12:00,
2013-06-08 11:23:00,71.0,41.0,-100.00,North,0,3.0,8.0,34,-99.99,,,-99.99,,2013-06-08 16:23:00,
2013-06-08 11:33:00,71.0,40.0,-100.00,North,0,4.0,11.0,32,-99.99,,,-99.99,,2013-06-08 16:33:00,
2013-06-08 11:42:00,71.0,40.0,-100.00,North,0,4.0,11.0,33,-99.99,,,-99.99,,2013-06-08 16:42:00,
2013-06-08 11:53:00,71.0,40.0,-100.00,North,0,4.0,11.0,33,-99.99,,,-99.99,,2013-06-08 16:53:00,
2013-06-08 12:02:00,71.0,40.0,-100.00,North,0,7.0,10.0,32,-99.99,,,-99.99,,2013-06-08 17:02:00,
2013-06-08 12:12:00,72.0,41.0,-100.00,North,0,4.0,8.0,32,-99.99,,,-99.99,,2013-06-08 17:12:00,
2013-06-08 12:23:00,72.0,41.0,-100.00,North,0,4.0,8.0,32,-99.99,,,-99.99,,2013-06-08 17:23:00,
2013-06-08 12:32:00,73.0,40.0,-100.00,North,0,3.0,8.0,30,-99.99,,,-99.99,,2013-06-08 17:32:00,
2013-06-08 12:42:00,74.0,40.0,-100.00,North,0,4.0,7.0,30,-99.99,,,-99.99,,2013-06-08 17:42:00,
2013-06-08 12:52:00,74.0,40.0,-100.00,North,0,4.0,7.0,30,-99.99,,,-99.99,,2013-06-08 17:52:00,
2013-06-08 13:02:00,75.0,41.0,-100.00,North,0,3.0,7.0,30,-99.99,,,-99.99,,2013-06-08 18:02:00,
2013-06-08 13:12:00,74.0,41.0,-100.00,North,5,8.0,10.0,30,-99.99,,,-99.99,,2013-06-08 18:12:00,
2013-06-08 13:22:00,74.0,41.0,-100.00,North,5,8.0,10.0,30,-99.99,,,-99.99,,2013-06-08 18:22:00,
2013-06-08 13:32:00,75.0,42.0,-100.00,North,0,1.0,6.0,31,-99.99,,,-99.99,,2013-06-08 18:32:00,
2013-06-08 13:42:00,76.0,43.0,-100.00,North,0,8.0,11.0,31,-99.99,,,-99.99,,2013-06-08 18:42:00,
2013-06-08 13:52:00,76.0,43.0,-100.00,North,0,8.0,11.0,31,-99.99,,,-99.99,,2013-06-08 18:52:00,
2013-06-08 14:03:00,76.0,42.0,-100.00,North,5,1.0,9.0,30,-99.99,,,-99.99,,2013-06-08 19:03:00,
2013-06-08 14:12:00,77.0,43.0,-100.00,North,0,0.0,10.0,30,-99.99,,,-99.99,,2013-06-08 19:12:00,
2013-06-08 14:22:00,77.0,43.0,-100.00,North,0,0.0,10.0,30,-99.99,,,-99.99,,2013-06-08 19:22:00,
2013-06-08 14:42:00,75.0,42.0,-100.00,North,0,6.0,11.0,31,-99.99,,,-99.99,,2013-06-08 19:42:00,
2013-06-08 14:53:00,75.0,42.0,-100.00,North,0,6.0,11.0,31,-99.99,,,-99.99,,2013-06-08 19:53:00,
2013-06-08 15:02:00,76.0,43.0,-100.00,North,0,4.0,11.0,31,-99.99,,,-99.99,,2013-06-08 20:02:00,
2013-06-08 15:12:00,76.0,42.0,-100.00,North,0,1.0,9.0,30,-99.99,,,-99.99,,2013-06-08 20:12:00,
2013-06-08 15:22:00,76.0,42.0,-100.00,North,0,1.0,9.0,30,-99.99,,,-99.99,,2013-06-08 20:22:00,
2013-06-08 15:32:00,75.0,43.0,-100.00,North,0,2.0,9.0,32,-99.99,,,-99.99,,2013-06-08 20:32:00,
2013-06-08 15:42:00,76.0,43.0,-100.00,North,5,0.0,8.0,31,-99.99,,,-99.99,,2013-06-08 20:42:00,
2013-06-08 15:53:00,76.0,43.0,-100.00,North,5,0.0,8.0,31,-99.99,,,-99.99,,2013-06-08 20:53:00,
2013-06-08 16:02:00,77.0,45.0,-100.00,North,0,1.0,9.0,32,-99.99,,,-99.99,,2013-06-08 21:02:00,
2013-06-08 16:12:00,76.0,43.0,-100.00,North,0,6.0,14.0,31,-99.99,,,-99.99,,2013-06-08 21:12:00,
2013-06-08 16:22:00,76.0,43.0,-100.00,North,0,6.0,14.0,31,-99.99,,,-99.99,,2013-06-08 21:22:00,
2013-06-08 16:33:00,75.0,43.0,-100.00,North,5,5.0,9.0,32,-99.99,,,-99.99,,2013-06-08 21:33:00,
2013-06-08 16:43:00,75.0,44.0,-100.00,North,0,9.0,11.0,33,-99.99,,,-99.99,,2013-06-08 21:43:00,
2013-06-08 16:53:00,75.0,44.0,-100.00,North,0,9.0,11.0,33,-99.99,,,-99.99,,2013-06-08 21:53:00,
2013-06-08 17:02:00,77.0,45.0,-100.00,North,0,6.0,10.0,32,-99.99,,,-99.99,,2013-06-08 22:02:00,
2013-06-08 17:12:00,74.0,43.0,-100.00,North,0,5.0,11.0,33,-99.99,,,-99.99,,2013-06-08 22:12:00,
2013-06-08 17:23:00,74.0,43.0,-100.00,North,0,5.0,11.0,33,-99.99,,,-99.99,,2013-06-08 22:23:00,
2013-06-08 17:33:00,74.0,44.0,-100.00,North,0,6.0,9.0,34,-99.99,,,-99.99,,2013-06-08 22:33:00,
2013-06-08 17:42:00,74.0,45.0,-100.00,North,5,6.0,10.0,35,-99.99,,,-99.99,,2013-06-08 22:42:00,
2013-06-08 17:53:00,74.0,45.0,-100.00,North,5,6.0,10.0,35,-99.99,,,-99.99,,2013-06-08 22:53:00,
2013-06-08 18:02:00,74.0,45.0,-100.00,North,0,1.0,4.0,35,-99.99,,,-99.99,,2013-06-08 23:02:00,
2013-06-08 18:12:00,75.0,45.0,-100.00,North,0,6.0,9.0,35,-99.99,,,-99.99,,2013-06-08 23:12:00,
2013-06-08 18:22:00,75.0,45.0,-100.00,North,0,6.0,9.0,35,-99.99,,,-99.99,,2013-06-08 23:22:00,
2013-06-08 18:32:00,75.0,45.0,-100.00,North,0,6.0,12.0,35,-99.99,,,-99.99,,2013-06-08 23:32:00,
2013-06-08 18:42:00,75.0,46.0,-100.00,North,0,6.0,8.0,35,-99.99,,,-99.99,,2013-06-08 23:42:00,
2013-06-08 18:52:00,75.0,46.0,-100.00,North,0,6.0,8.0,35,-99.99,,,-99.99,,2013-06-08 23:52:00,
2013-06-08 19:02:00,73.0,45.0,-100.00,North,0,5.0,7.0,36,-99.99,,,-99.99,,2013-06-09 00:02:00,
2013-06-08 19:12:00,72.0,45.0,-100.00,North,0,5.0,6.0,37,-99.99,,,-99.99,,2013-06-09 00:12:00,
2013-06-08 19:22:00,72.0,45.0,-100.00,North,0,5.0,6.0,37,-99.99,,,-99.99,,2013-06-09 00:22:00,
2013-06-08 19:32:00,72.0,45.0,-100.00,North,0,4.0,6.0,37,-99.99,,,-99.99,,2013-06-09 00:32:00,
2013-06-08 19:42:00,73.0,45.0,-100.00,North,0,4.0,6.0,37,-99.99,,,-99.99,,2013-06-09 00:42:00,
2013-06-08 19:52:00,73.0,45.0,-100.00,North,0,4.0,6.0,37,-99.99,,,-99.99,,2013-06-09 00:52:00,
2013-06-08 20:02:00,72.0,45.0,-100.00,North,0,4.0,5.0,38,-99.99,,,-99.99,,2013-06-09 01:02:00,
2013-06-08 20:12:00,72.0,46.0,-100.00,North,5,4.0,4.0,39,-99.99,,,-99.99,,2013-06-09 01:12:00,
2013-06-08 20:22:00,72.0,46.0,-100.00,North,5,4.0,4.0,39,-99.99,,,-99.99,,2013-06-09 01:22:00,
2013-06-08 20:32:00,71.0,46.0,-100.00,North,5,4.0,4.0,42,-99.99,,,-99.99,,2013-06-09 01:32:00,
2013-06-08 20:42:00,69.0,48.0,-100.00,North,0,5.0,6.0,47,-99.99,,,-99.99,,2013-06-09 01:42:00,
2013-06-08 20:52:00,69.0,48.0,-100.00,North,0,5.0,6.0,47,-99.99,,,-99.99,,2013-06-09 01:52:00,
2013-06-08 21:02:00,68.0,49.0,-100.00,North,0,6.0,8.0,50,-99.99,,,-99.99,,2013-06-09 02:02:00,
2013-06-08 21:12:00,68.0,48.0,-100.00,North,0,15.0,21.0,49,-99.99,,,-99.99,,2013-06-09 02:12:00,
2013-06-08 21:22:00,68.0,48.0,-100.00,North,0,15.0,21.0,49,-99.99,,,-99.99,,2013-06-09 02:22:00,
2013-06-08 21:32:00,67.0,46.0,-100.00,North,0,13.0,19.0,48,-99.99,,,-99.99,,2013-06-09 02:32:00,
2013-06-08 21:42:00,66.0,46.0,-100.00,North,0,11.0,17.0,48,-99.99,,,-99.99,,2013-06-09 02:42:00,
2013-06-08 21:52:00,66.0,46.0,-100.00,North,0,11.0,17.0,48,-99.99,,,-99.99,,2013-06-09 02:52:00,
2013-06-08 22:02:00,65.0,46.0,-100.00,North,0,11.0,14.0,50,-99.99,,,-99.99,,2013-06-09 03:02:00,
2013-06-08 22:12:00,65.0,46.0,-100.00,North,0,13.0,16.0,50,-99.99,,,-99.99,,2013-06-09 03:12:00,
2013-06-08 22:22:00,65.0,46.0,-100.00,North,0,13.0,16.0,50,-99.99,,,-99.99,,2013-06-09 03:22:00,
2013-06-08 22:33:00,65.0,46.0,-100.00,North,0,11.0,15.0,50,-99.99,,,-99.99,,2013-06-09 03:33:00,
2013-06-08 22:43:00,64.0,46.0,-100.00,North,0,12.0,16.0,51,-99.99,,,-99.99,,2013-06-09 03:43:00,
2013-06-08 22:53:00,64.0,46.0,-100.00,North,0,12.0,16.0,51,-99.99,,,-99.99,,2013-06-09 03:53:00,
2013-06-08 23:03:00,63.0,46.0,-100.00,North,0,13.0,15.0,53,-99.99,,,-99.99,,2013-06-09 04:03:00,
2013-06-08 23:12:00,63.0,46.0,-100.00,North,0,13.0,15.0,53,-99.99,,,-99.99,,2013-06-09 04:12:00,
2013-06-08 23:23:00,63.0,46.0,-100.00,North,0,13.0,15.0,53,-99.99,,,-99.99,,2013-06-09 04:23:00,
2013-06-08 23:33:00,63.0,44.0,-100.00,North,0,14.0,18.0,51,-99.99,,,-99.99,,2013-06-09 04:33:00,
2013-06-08 23:43:00,62.0,44.0,-100.00,North,0,13.0,16.0,51,-99.99,,,-99.99,,2013-06-09 04:43:00,
2013-06-08 23:53:00,62.0,44.0,-100.00,North,0,13.0,16.0,51,-99.99,,,-99.99,,2013-06-09 04:53:00,